Time;durP1;ratioP1;P1;durP2;ratioP2;P2;SDS_P1;SDS_P2;PMS_P1;PMS_P2;Temp;Humidity;BMP_temperature;BMP_pressure;BME280_temperature;BME280_humidity;BME280_pressure;Samples;Min_cycle;Max_cycle;Signal;HPM_P1;HPM_P2
2022/03/09 00:01:15;;;;;;;7.22;4.40;;;;;;;;;;5092801;28;20486;-66
2022/03/09 00:03:41;;;;;;;7.65;4.75;;;;;;;;;;5093012;28;20036;-66
2022/03/09 00:06:07;;;;;;;9.60;4.60;;;;;;;;;;5093114;28;20040;-66
2022/03/09 00:08:33;;;;;;;7.13;4.07;;;;;;;;;;5091600;28;20040;-66
2022/03/09 00:10:59;;;;;;;6.05;4.30;;;;;;;;;;5092586;28;20093;-66
2022/03/09 00:13:25;;;;;;;7.38;4.15;;;;;;;;;;5092372;28;20040;-66
2022/03/09 00:15:51;;;;;;;7.65;4.40;;;;;;;;;;5090543;28;20044;-66
2022/03/09 00:18:19;;;;;;;7.43;4.35;;;;;;;;;;5091246;28;20039;-66
2022/03/09 00:20:45;;;;;;;6.45;4.00;;;;;;;;;;5091206;28;20052;-66
2022/03/09 00:23:11;;;;;;;10.48;4.68;;;;;;;;;;5090342;28;20075;-66
2022/03/09 00:25:37;;;;;;;9.18;4.88;;;;;;;;;;5091479;28;20048;-67
2022/03/09 00:28:03;;;;;;;7.28;4.38;;;;;;;;;;5093179;28;20375;-67
2022/03/09 00:30:29;;;;;;;8.02;4.28;;;;;;;;;;5091819;28;20159;-66
2022/03/09 00:32:55;;;;;;;8.45;4.70;;;;;;;;;;5091346;28;20517;-67
2022/03/09 00:35:22;;;;;;;7.78;5.03;;;;;;;;;;5092422;28;20040;-67
2022/03/09 00:37:48;;;;;;;8.80;4.82;;;;;;;;;;5091640;28;20055;-67
2022/03/09 00:40:14;;;;;;;8.65;4.90;;;;;;;;;;5092549;28;20040;-67
2022/03/09 00:42:40;;;;;;;5.57;4.07;;;;;;;;;;5092715;28;20055;-67
2022/03/09 00:45:07;;;;;;;7.70;4.30;;;;;;;;;;5095386;28;20036;-67
2022/03/09 00:47:33;;;;;;;8.65;4.65;;;;;;;;;;5096102;28;20043;-67
2022/03/09 00:49:59;;;;;;;7.35;4.32;;;;;;;;;;5096145;28;20069;-67
2022/03/09 00:52:26;;;;;;;6.95;4.53;;;;;;;;;;5095450;28;20381;-67
2022/03/09 00:54:53;;;;;;;9.32;4.93;;;;;;;;;;5095374;28;20044;-67
2022/03/09 00:57:19;;;;;;;7.50;4.75;;;;;;;;;;5095447;28;20036;-67
2022/03/09 00:59:45;;;;;;;8.68;4.68;;;;;;;;;;5094521;28;20085;-67
2022/03/09 01:02:11;;;;;;;7.97;4.65;;;;;;;;;;5095907;28;20458;-67
2022/03/09 01:04:37;;;;;;;8.98;5.10;;;;;;;;;;5094481;28;20474;-67
2022/03/09 01:07:04;;;;;;;7.88;4.57;;;;;;;;;;5095673;28;20028;-67
2022/03/09 01:09:30;;;;;;;6.72;4.70;;;;;;;;;;5094022;28;20123;-67
2022/03/09 01:11:57;;;;;;;10.50;5.28;;;;;;;;;;5094167;28;20438;-67
2022/03/09 01:14:23;;;;;;;7.63;4.68;;;;;;;;;;5095589;28;20048;-67
2022/03/09 01:16:49;;;;;;;7.30;4.45;;;;;;;;;;5094730;28;20479;-67
2022/03/09 01:19:15;;;;;;;7.18;4.93;;;;;;;;;;5094232;28;20050;-67
2022/03/09 01:21:41;;;;;;;8.07;5.03;;;;;;;;;;5095227;28;20405;-67
2022/03/09 01:24:07;;;;;;;8.63;4.82;;;;;;;;;;5094521;28;20040;-67
2022/03/09 01:26:34;;;;;;;8.63;5.13;;;;;;;;;;5093311;28;20391;-67
2022/03/09 01:29:00;;;;;;;8.18;4.63;;;;;;;;;;5094983;28;20535;-67
2022/03/09 01:31:26;;;;;;;11.35;5.18;;;;;;;;;;5094623;28;20039;-67
2022/03/09 01:33:53;;;;;;;11.02;5.10;;;;;;;;;;5084660;28;20043;-67
2022/03/09 01:36:20;;;;;;;7.53;4.80;;;;;;;;;;5074440;28;20051;-67
2022/03/09 01:38:46;;;;;;;8.93;4.43;;;;;;;;;;5072722;28;20044;-67
2022/03/09 01:41:12;;;;;;;9.05;5.00;;;;;;;;;;5074992;28;20042;-67
2022/03/09 01:43:38;;;;;;;14.63;5.07;;;;;;;;;;5074824;28;20063;-67
2022/03/09 01:46:05;;;;;;;8.10;4.85;;;;;;;;;;5073691;28;20052;-67
2022/03/09 01:48:31;;;;;;;8.70;5.18;;;;;;;;;;5074487;28;20037;-66
2022/03/09 01:50:57;;;;;;;9.40;4.90;;;;;;;;;;5074340;28;20048;-66
2022/03/09 01:53:23;;;;;;;7.60;4.85;;;;;;;;;;5073041;28;20049;-66
2022/03/09 01:55:49;;;;;;;7.25;4.97;;;;;;;;;;5073614;28;20048;-66
2022/03/09 01:58:15;;;;;;;8.30;4.80;;;;;;;;;;5074028;28;20044;-66
2022/03/09 02:00:41;;;;;;;10.23;4.97;;;;;;;;;;5073919;28;20047;-66
2022/03/09 02:03:07;;;;;;;7.93;4.82;;;;;;;;;;5074339;28;20041;-66
2022/03/09 02:05:35;;;;;;;7.80;5.10;;;;;;;;;;5074015;28;20473;-66
2022/03/09 02:10:47;;;;;;;8.50;5.15;;;;;;;;;;5074093;28;20157;-66
2022/03/09 02:13:13;;;;;;;10.20;5.47;;;;;;;;;;5074154;28;20040;-66
2022/03/09 02:15:39;;;;;;;8.85;5.00;;;;;;;;;;5072967;28;20045;-66
2022/03/09 02:18:05;;;;;;;7.82;5.07;;;;;;;;;;5074079;28;20040;-66
2022/03/09 02:20:31;;;;;;;7.95;5.30;;;;;;;;;;5072603;28;20482;-66
2022/03/09 02:22:58;;;;;;;8.90;5.18;;;;;;;;;;5073178;28;20119;-66
2022/03/09 02:25:24;;;;;;;8.82;5.10;;;;;;;;;;5072096;28;20052;-66
2022/03/09 02:27:51;;;;;;;8.68;5.30;;;;;;;;;;5073602;28;20040;-66
2022/03/09 02:30:18;;;;;;;9.77;5.72;;;;;;;;;;5072261;28;20502;-66
2022/03/09 02:32:46;;;;;;;12.25;5.25;;;;;;;;;;5072589;28;20124;-66
2022/03/09 02:35:14;;;;;;;9.68;5.30;;;;;;;;;;5093123;28;20044;-66
2022/03/09 02:37:40;;;;;;;11.13;5.40;;;;;;;;;;5093243;28;20050;-66
2022/03/09 02:40:08;;;;;;;8.68;5.63;;;;;;;;;;5093451;28;20040;-66
2022/03/09 02:42:34;;;;;;;9.63;6.07;;;;;;;;;;5094090;28;20086;-66
2022/03/09 02:45:00;;;;;;;12.88;5.53;;;;;;;;;;5092853;28;20048;-66
2022/03/09 02:47:26;;;;;;;8.55;4.82;;;;;;;;;;5093597;28;20105;-66
2022/03/09 02:49:52;;;;;;;12.00;5.80;;;;;;;;;;5093531;28;20485;-66
2022/03/09 02:52:18;;;;;;;9.15;5.38;;;;;;;;;;5092170;28;20075;-66
2022/03/09 02:54:44;;;;;;;9.02;5.15;;;;;;;;;;5093463;28;20036;-66
2022/03/09 02:57:10;;;;;;;8.95;5.75;;;;;;;;;;5093807;28;20522;-66
2022/03/09 02:59:37;;;;;;;16.17;5.82;;;;;;;;;;5093182;28;20165;-66
2022/03/09 03:02:03;;;;;;;11.05;5.63;;;;;;;;;;5093651;28;20032;-66
2022/03/09 03:04:29;;;;;;;8.15;5.40;;;;;;;;;;5092993;28;20089;-66
2022/03/09 03:06:55;;;;;;;9.80;5.72;;;;;;;;;;5091321;28;20067;-66
2022/03/09 03:09:21;;;;;;;10.68;6.05;;;;;;;;;;5093656;28;20401;-66
2022/03/09 03:11:47;;;;;;;11.93;6.10;;;;;;;;;;5093458;28;20040;-66
2022/03/09 03:14:13;;;;;;;8.68;5.40;;;;;;;;;;5091369;28;20036;-66
2022/03/09 03:16:39;;;;;;;10.48;5.28;;;;;;;;;;5092843;28;20097;-66
2022/03/09 03:19:05;;;;;;;10.60;5.95;;;;;;;;;;5093427;28;20044;-66
2022/03/09 03:21:32;;;;;;;10.75;6.30;;;;;;;;;;5092552;28;20725;-66
2022/03/09 03:23:58;;;;;;;9.30;5.28;;;;;;;;;;5093118;28;20047;-66
2022/03/09 03:26:24;;;;;;;10.02;6.07;;;;;;;;;;5092820;28;20047;-66
2022/03/09 03:28:51;;;;;;;13.27;6.00;;;;;;;;;;5091793;28;20048;-66
2022/03/09 03:31:19;;;;;;;9.52;6.00;;;;;;;;;;5093253;28;20479;-66
2022/03/09 03:33:45;;;;;;;13.52;6.72;;;;;;;;;;5083767;28;20044;-66
2022/03/09 03:36:11;;;;;;;11.30;6.32;;;;;;;;;;5070619;28;20055;-66
2022/03/09 03:38:37;;;;;;;9.68;5.97;;;;;;;;;;5071367;28;20079;-66
2022/03/09 03:41:03;;;;;;;10.13;6.32;;;;;;;;;;5071378;28;20037;-66
2022/03/09 03:43:30;;;;;;;10.32;6.32;;;;;;;;;;5072265;28;20040;-66
2022/03/09 03:45:57;;;;;;;11.85;6.53;;;;;;;;;;5072318;28;20086;-66
2022/03/09 03:48:23;;;;;;;10.27;6.13;;;;;;;;;;5072305;28;20064;-66
2022/03/09 03:50:49;;;;;;;10.60;5.63;;;;;;;;;;5071667;28;20048;-66
2022/03/09 03:53:15;;;;;;;11.32;6.68;;;;;;;;;;5071323;28;20033;-66
2022/03/09 03:55:41;;;;;;;11.93;6.63;;;;;;;;;;5072418;28;20041;-66
2022/03/09 03:58:07;;;;;;;10.02;6.68;;;;;;;;;;5071725;28;20193;-66
2022/03/09 04:00:33;;;;;;;10.32;6.47;;;;;;;;;;5071949;28;20773;-66
2022/03/09 04:03:00;;;;;;;13.10;6.47;;;;;;;;;;5071114;28;20531;-66
2022/03/09 04:05:26;;;;;;;12.27;6.45;;;;;;;;;;5071304;28;20048;-66
2022/03/09 04:07:52;;;;;;;10.52;6.15;;;;;;;;;;5072282;28;20033;-66
2022/03/09 04:10:19;;;;;;;12.10;6.82;;;;;;;;;;5072370;28;20108;-66
2022/03/09 04:12:45;;;;;;;10.48;6.88;;;;;;;;;;5071258;28;20546;-66
2022/03/09 04:15:11;;;;;;;11.60;6.43;;;;;;;;;;5072008;28;20044;-66
2022/03/09 04:17:41;;;;;;;10.73;6.32;;;;;;;;;;5074264;28;20127;-66
2022/03/09 04:20:07;;;;;;;10.05;6.13;;;;;;;;;;5075346;28;20040;-66
2022/03/09 04:22:33;;;;;;;12.77;7.43;;;;;;;;;;5074396;28;20072;-66
2022/03/09 04:24:59;;;;;;;11.57;6.95;;;;;;;;;;5074407;28;20106;-66
2022/03/09 04:27:25;;;;;;;12.32;6.25;;;;;;;;;;5074924;28;20032;-66
2022/03/09 04:29:51;;;;;;;13.65;6.75;;;;;;;;;;5075412;28;20045;-66
2022/03/09 04:32:17;;;;;;;9.38;6.00;;;;;;;;;;5075499;28;20049;-67
2022/03/09 04:34:43;;;;;;;11.38;6.82;;;;;;;;;;5091948;28;20090;-66
2022/03/09 04:37:10;;;;;;;12.45;6.93;;;;;;;;;;5077624;28;20459;-66
2022/03/09 04:39:36;;;;;;;11.30;6.78;;;;;;;;;;5094611;28;20036;-66
2022/03/09 04:42:02;;;;;;;11.35;6.75;;;;;;;;;;5095153;28;20042;-66
2022/03/09 04:44:28;;;;;;;11.23;6.78;;;;;;;;;;5095724;28;20496;-66
2022/03/09 04:46:54;;;;;;;13.20;7.80;;;;;;;;;;5095480;28;20461;-66
2022/03/09 04:49:20;;;;;;;11.05;6.90;;;;;;;;;;5094854;28;20080;-66
2022/03/09 04:51:46;;;;;;;11.38;6.57;;;;;;;;;;5095430;28;20478;-66
2022/03/09 04:54:13;;;;;;;12.68;6.97;;;;;;;;;;5095325;28;20048;-66
2022/03/09 04:56:39;;;;;;;10.15;6.82;;;;;;;;;;5094294;28;20032;-66
2022/03/09 04:59:05;;;;;;;11.45;6.60;;;;;;;;;;5095508;28;20544;-66
2022/03/09 05:01:31;;;;;;;13.35;7.35;;;;;;;;;;5095456;28;20043;-66
2022/03/09 05:03:57;;;;;;;11.43;6.85;;;;;;;;;;5094986;28;20383;-66
2022/03/09 05:06:23;;;;;;;13.73;7.38;;;;;;;;;;5094702;28;20047;-66
2022/03/09 05:08:49;;;;;;;14.40;7.25;;;;;;;;;;5095141;28;20063;-66
2022/03/09 05:11:15;;;;;;;14.40;7.95;;;;;;;;;;5095458;28;20059;-66
2022/03/09 05:13:41;;;;;;;11.30;6.63;;;;;;;;;;5094373;28;20032;-66
2022/03/09 05:16:08;;;;;;;10.50;6.45;;;;;;;;;;5093843;28;20127;-66
2022/03/09 05:18:37;;;;;;;11.32;6.60;;;;;;;;;;5095058;28;20093;-66
2022/03/09 05:21:04;;;;;;;11.57;6.80;;;;;;;;;;5094011;28;20478;-66
2022/03/09 05:23:30;;;;;;;13.27;6.88;;;;;;;;;;5093289;28;20102;-66
2022/03/09 05:25:56;;;;;;;12.23;6.85;;;;;;;;;;5094815;28;20123;-66
2022/03/09 05:28:22;;;;;;;13.77;7.03;;;;;;;;;;5093159;28;20497;-66
2022/03/09 05:30:49;;;;;;;12.27;6.90;;;;;;;;;;5094576;28;20261;-66
2022/03/09 05:33:15;;;;;;;10.93;6.95;;;;;;;;;;5089300;28;20391;-66
2022/03/09 05:35:41;;;;;;;19.88;7.80;;;;;;;;;;5073272;28;20029;-66
2022/03/09 05:38:07;;;;;;;13.07;7.40;;;;;;;;;;5074122;28;20083;-66
2022/03/09 05:40:33;;;;;;;13.25;7.50;;;;;;;;;;5074403;28;20044;-66
2022/03/09 05:42:59;;;;;;;13.82;7.35;;;;;;;;;;5073881;28;20033;-66
2022/03/09 05:45:25;;;;;;;14.35;7.75;;;;;;;;;;5073888;28;20696;-66
2022/03/09 05:47:51;;;;;;;14.73;7.25;;;;;;;;;;5073991;28;20591;-66
2022/03/09 05:50:18;;;;;;;13.40;7.07;;;;;;;;;;5072007;28;20391;-66
2022/03/09 05:52:44;;;;;;;11.18;6.75;;;;;;;;;;5073580;28;20514;-66
2022/03/09 05:55:10;;;;;;;14.60;6.97;;;;;;;;;;5073874;28;20524;-66
2022/03/09 05:57:36;;;;;;;14.90;7.38;;;;;;;;;;5073427;28;20044;-66
2022/03/09 06:00:03;;;;;;;13.52;7.63;;;;;;;;;;5073594;28;20391;-66
2022/03/09 06:02:29;;;;;;;14.38;6.90;;;;;;;;;;5073645;28;20044;-66
2022/03/09 06:04:55;;;;;;;12.43;6.82;;;;;;;;;;5073552;28;20519;-67
2022/03/09 06:07:21;;;;;;;12.98;7.25;;;;;;;;;;5073970;28;20051;-66
2022/03/09 06:09:49;;;;;;;14.63;6.65;;;;;;;;;;5074324;28;20426;-66
2022/03/09 06:12:15;;;;;;;11.60;6.70;;;;;;;;;;5073423;28;20037;-66
2022/03/09 06:14:41;;;;;;;13.55;6.43;;;;;;;;;;5074389;28;20120;-66
2022/03/09 06:17:07;;;;;;;12.82;7.22;;;;;;;;;;5074059;28;20032;-66
2022/03/09 06:19:33;;;;;;;13.98;7.22;;;;;;;;;;5073412;28;20490;-66
2022/03/09 06:21:59;;;;;;;13.70;6.60;;;;;;;;;;5074028;28;20032;-66
2022/03/09 06:24:25;;;;;;;11.32;6.50;;;;;;;;;;5074154;28;20098;-67
2022/03/09 06:26:53;;;;;;;13.13;7.05;;;;;;;;;;5073277;28;20086;-66
2022/03/09 06:29:19;;;;;;;11.50;6.90;;;;;;;;;;5073744;28;20056;-67
2022/03/09 06:31:46;;;;;;;15.70;7.65;;;;;;;;;;5073269;28;20055;-66
2022/03/09 06:34:12;;;;;;;12.05;6.97;;;;;;;;;;5085535;28;20061;-66
2022/03/09 06:36:43;;;;;;;12.82;7.03;;;;;;;;;;5092190;28;20070;-66
2022/03/09 06:39:09;;;;;;;13.35;7.00;;;;;;;;;;5093779;28;20083;-66
2022/03/09 06:41:35;;;;;;;10.40;6.05;;;;;;;;;;5093505;28;20498;-66
2022/03/09 06:44:01;;;;;;;14.45;7.47;;;;;;;;;;5093475;28;20035;-66
2022/03/09 06:46:27;;;;;;;14.13;7.03;;;;;;;;;;5092930;28;20497;-66
2022/03/09 06:48:54;;;;;;;13.85;7.07;;;;;;;;;;5088602;28;20050;-67
2022/03/09 06:51:22;;;;;;;11.23;6.57;;;;;;;;;;5078602;28;20040;-67
2022/03/09 06:53:48;;;;;;;12.30;7.00;;;;;;;;;;5082875;28;20115;-66
2022/03/09 06:56:18;;;;;;;11.98;6.80;;;;;;;;;;5090623;28;20097;-67
2022/03/09 06:58:45;;;;;;;16.67;7.18;;;;;;;;;;5087679;28;20116;-66
2022/03/09 07:01:11;;;;;;;13.20;6.88;;;;;;;;;;5082283;28;20047;-66
2022/03/09 07:03:37;;;;;;;15.50;6.88;;;;;;;;;;5078873;28;20493;-66
2022/03/09 07:06:04;;;;;;;12.27;6.82;;;;;;;;;;5080342;28;20029;-66
2022/03/09 07:08:30;;;;;;;13.52;7.47;;;;;;;;;;5082981;28;20387;-67
2022/03/09 07:10:59;;;;;;;16.35;7.43;;;;;;;;;;5089973;28;20035;-66
2022/03/09 07:13:25;;;;;;;13.75;6.78;;;;;;;;;;5084663;28;20024;-66
2022/03/09 07:15:52;;;;;;;11.77;7.40;;;;;;;;;;5086562;28;20075;-66
2022/03/09 07:18:18;;;;;;;12.40;6.60;;;;;;;;;;5080555;28;20040;-66
2022/03/09 07:20:44;;;;;;;12.00;6.47;;;;;;;;;;5094112;28;20521;-66
2022/03/09 07:23:12;;;;;;;11.13;7.20;;;;;;;;;;5093114;28;20051;-66
2022/03/09 07:25:40;;;;;;;12.77;6.60;;;;;;;;;;5092316;28;20044;-67
2022/03/09 07:28:06;;;;;;;12.75;6.85;;;;;;;;;;5093281;28;20490;-67
2022/03/09 07:30:32;;;;;;;10.15;6.65;;;;;;;;;;5092811;28;20055;-67
2022/03/09 07:32:59;;;;;;;14.63;6.63;;;;;;;;;;5092505;28;20040;-66
2022/03/09 07:35:25;;;;;;;11.27;6.45;;;;;;;;;;5093140;28;20040;-68
2022/03/09 07:37:51;;;;;;;13.10;7.05;;;;;;;;;;5093527;28;20035;-66
2022/03/09 07:40:17;;;;;;;12.70;6.90;;;;;;;;;;5090067;28;20063;-66
2022/03/09 07:42:44;;;;;;;14.70;7.63;;;;;;;;;;5092546;28;20044;-67
2022/03/09 07:45:11;;;;;;;12.95;7.63;;;;;;;;;;5078274;28;20063;-67
2022/03/09 07:47:37;;;;;;;18.58;8.73;;;;;;;;;;5073779;28;20028;-67
2022/03/09 07:50:05;;;;;;;16.88;8.57;;;;;;;;;;5070329;28;20443;-68
2022/03/09 07:52:31;;;;;;;10.48;7.22;;;;;;;;;;5092725;28;20040;-68
2022/03/09 07:54:57;;;;;;;11.80;6.40;;;;;;;;;;5098202;28;20039;-67
2022/03/09 07:57:23;;;;;;;13.02;6.47;;;;;;;;;;5097408;28;20101;-67
2022/03/09 07:59:49;;;;;;;12.82;7.45;;;;;;;;;;5098516;28;20048;-67
2022/03/09 08:02:15;;;;;;;10.98;6.30;;;;;;;;;;5098298;28;20040;-68
2022/03/09 08:04:41;;;;;;;11.85;6.97;;;;;;;;;;5098074;28;20047;-67
2022/03/09 08:07:07;;;;;;;11.00;6.50;;;;;;;;;;5097850;28;20040;-67
2022/03/09 08:09:33;;;;;;;10.95;6.97;;;;;;;;;;5098162;28;20410;-67
2022/03/09 08:11:59;;;;;;;11.13;6.82;;;;;;;;;;5096311;28;20074;-67
2022/03/09 08:14:26;;;;;;;13.23;6.63;;;;;;;;;;5098424;28;20136;-67
2022/03/09 08:16:52;;;;;;;12.27;7.28;;;;;;;;;;5097787;28;20040;-68
2022/03/09 08:19:18;;;;;;;11.75;6.38;;;;;;;;;;5095539;28;20470;-67
2022/03/09 08:21:44;;;;;;;14.43;6.88;;;;;;;;;;5093465;28;20614;-67
2022/03/09 08:24:10;;;;;;;12.43;7.68;;;;;;;;;;5097995;28;20135;-67
2022/03/09 08:26:36;;;;;;;11.68;6.78;;;;;;;;;;5098154;28;20482;-67
2022/03/09 08:29:02;;;;;;;11.57;6.22;;;;;;;;;;5097909;28;20043;-67
2022/03/09 08:31:28;;;;;;;10.43;6.85;;;;;;;;;;5097748;28;20474;-67
2022/03/09 08:33:55;;;;;;;11.52;6.47;;;;;;;;;;5087794;28;20060;-68
2022/03/09 08:36:21;;;;;;;13.95;7.63;;;;;;;;;;5079081;28;20059;-68
2022/03/09 08:38:48;;;;;;;12.50;7.25;;;;;;;;;;5098254;28;20043;-68
2022/03/09 08:41:15;;;;;;;11.23;6.72;;;;;;;;;;5097183;28;20156;-68
2022/03/09 08:43:43;;;;;;;12.30;7.03;;;;;;;;;;5098315;28;20048;-68
2022/03/09 08:46:09;;;;;;;9.25;6.18;;;;;;;;;;5095942;28;20454;-68
2022/03/09 08:48:35;;;;;;;9.07;6.32;;;;;;;;;;5098474;28;20040;-68
2022/03/09 08:51:01;;;;;;;13.77;7.28;;;;;;;;;;5098285;28;20072;-67
2022/03/09 08:53:27;;;;;;;10.57;6.07;;;;;;;;;;5096271;28;20036;-67
2022/03/09 08:55:53;;;;;;;10.95;6.35;;;;;;;;;;5098164;28;20047;-67
2022/03/09 08:58:19;;;;;;;12.60;7.03;;;;;;;;;;5098117;28;20083;-67
2022/03/09 09:00:45;;;;;;;14.18;7.18;;;;;;;;;;5098369;28;20455;-68
2022/03/09 09:03:12;;;;;;;10.32;6.50;;;;;;;;;;5094592;28;20040;-67
2022/03/09 09:05:38;;;;;;;10.93;6.50;;;;;;;;;;5094758;28;20068;-67
2022/03/09 09:08:05;;;;;;;10.98;6.70;;;;;;;;;;5093837;28;20054;-67
2022/03/09 09:10:32;;;;;;;13.85;6.63;;;;;;;;;;5093182;28;20072;-67
2022/03/09 09:12:58;;;;;;;13.40;6.30;;;;;;;;;;5094726;28;20107;-67
2022/03/09 09:15:25;;;;;;;9.48;6.32;;;;;;;;;;5094276;28;20047;-67
2022/03/09 09:18:00;;;;;;;10.82;6.47;;;;;;;;;;5093794;28;20047;-67
2022/03/09 09:20:28;;;;;;;10.02;6.15;;;;;;;;;;5093410;28;20043;-67
2022/03/09 09:22:55;;;;;;;12.80;7.30;;;;;;;;;;5093453;28;20051;-67
2022/03/09 09:25:23;;;;;;;11.95;6.40;;;;;;;;;;5094014;28;20040;-67
2022/03/09 09:27:50;;;;;;;11.75;6.93;;;;;;;;;;5093480;28;20494;-67
2022/03/09 09:30:16;;;;;;;14.20;6.60;;;;;;;;;;5094192;28;20052;-67
2022/03/09 09:32:43;;;;;;;10.02;6.78;;;;;;;;;;5093690;28;20104;-68
2022/03/09 09:35:10;;;;;;;11.25;6.53;;;;;;;;;;5094267;28;20040;-67
2022/03/09 09:37:37;;;;;;;10.27;6.25;;;;;;;;;;5094238;28;20136;-67
2022/03/09 09:40:06;;;;;;;11.90;6.18;;;;;;;;;;5093439;28;20054;-67
2022/03/09 09:42:33;;;;;;;11.02;6.30;;;;;;;;;;5093888;28;20044;-67
2022/03/09 09:45:00;;;;;;;10.77;6.60;;;;;;;;;;5094054;28;20495;-67
2022/03/09 09:47:29;;;;;;;11.63;6.63;;;;;;;;;;5093404;28;20425;-67
2022/03/09 09:50:02;;;;;;;14.52;6.88;;;;;;;;;;5094004;28;20623;-67
2022/03/09 09:52:36;;;;;;;10.68;6.90;;;;;;;;;;5094086;28;20512;-67
2022/03/09 09:55:04;;;;;;;12.50;6.57;;;;;;;;;;5093549;28;20055;-67
2022/03/09 09:57:31;;;;;;;11.60;6.70;;;;;;;;;;5093281;28;20093;-67
2022/03/09 09:59:58;;;;;;;12.95;6.63;;;;;;;;;;5094193;28;20048;-68
2022/03/09 10:02:24;;;;;;;10.20;6.78;;;;;;;;;;5092445;28;20047;-68
2022/03/09 10:04:51;;;;;;;14.35;7.22;;;;;;;;;;5093802;28;20047;-68
2022/03/09 10:07:18;;;;;;;11.65;7.10;;;;;;;;;;5094053;28;20177;-68
2022/03/09 10:09:44;;;;;;;12.10;7.22;;;;;;;;;;5092020;28;20075;-68
2022/03/09 10:12:13;;;;;;;10.32;6.55;;;;;;;;;;5093703;28;20122;-68
2022/03/09 10:14:44;;;;;;;13.63;7.15;;;;;;;;;;5092768;28;20043;-68
2022/03/09 10:17:15;;;;;;;14.23;7.40;;;;;;;;;;5090969;28;20047;-68
2022/03/09 10:19:45;;;;;;;10.48;6.15;;;;;;;;;;5093398;28;20375;-68
2022/03/09 10:22:46;;;;;;;11.63;6.40;;;;;;;;;;5092827;28;20119;-68
2022/03/09 10:25:12;;;;;;;9.73;6.57;;;;;;;;;;5092851;28;20060;-68
2022/03/09 10:27:38;;;;;;;13.55;7.07;;;;;;;;;;5093218;28;20040;-68
2022/03/09 10:30:05;;;;;;;11.75;7.25;;;;;;;;;;5090842;28;20056;-68
2022/03/09 10:32:54;;;;;;;14.88;6.85;;;;;;;;;;5093075;28;20044;-68
2022/03/09 10:35:27;;;;;;;12.82;7.18;;;;;;;;;;5072704;28;20409;-68
2022/03/09 10:37:53;;;;;;;12.35;7.05;;;;;;;;;;5081212;28;20050;-68
2022/03/09 10:40:20;;;;;;;13.63;7.15;;;;;;;;;;5092924;28;20051;-68
2022/03/09 10:42:47;;;;;;;9.18;6.35;;;;;;;;;;5092885;28;20054;-68
2022/03/09 10:45:15;;;;;;;12.05;7.50;;;;;;;;;;5092193;28;20044;-67
2022/03/09 10:47:42;;;;;;;10.55;6.45;;;;;;;;;;5092685;28;20082;-68
2022/03/09 10:50:20;;;;;;;15.50;7.03;;;;;;;;;;5093042;28;20032;-68
2022/03/09 10:52:54;;;;;;;11.15;7.07;;;;;;;;;;5091762;28;20039;-68
2022/03/09 10:55:22;;;;;;;13.95;6.97;;;;;;;;;;5091500;28;20052;-68
2022/03/09 10:57:50;;;;;;;13.30;7.28;;;;;;;;;;5092299;28;20046;-68
2022/03/09 11:00:16;;;;;;;12.15;7.13;;;;;;;;;;5091709;28;20044;-68
2022/03/09 11:02:52;;;;;;;12.27;7.28;;;;;;;;;;5092173;28;20122;-68
2022/03/09 11:05:20;;;;;;;14.05;7.10;;;;;;;;;;5092063;28;20040;-68
2022/03/09 11:07:47;;;;;;;12.40;7.40;;;;;;;;;;5090331;28;20083;-68
2022/03/09 11:10:13;;;;;;;8.23;6.53;;;;;;;;;;5092316;28;20426;-68
2022/03/09 11:12:40;;;;;;;12.98;7.45;;;;;;;;;;5091917;28;20036;-68
2022/03/09 11:15:07;;;;;;;12.38;7.65;;;;;;;;;;5091563;28;20047;-68
2022/03/09 11:17:34;;;;;;;11.13;7.65;;;;;;;;;;5091586;28;20584;-68
2022/03/09 11:20:00;;;;;;;10.48;7.30;;;;;;;;;;5091724;28;20109;-68
2022/03/09 11:22:26;;;;;;;11.52;7.05;;;;;;;;;;5091395;28;20035;-68
2022/03/09 11:24:53;;;;;;;12.93;7.78;;;;;;;;;;5091664;28;20032;-68
2022/03/09 11:27:20;;;;;;;13.00;7.78;;;;;;;;;;5091357;28;20043;-68
2022/03/09 11:29:46;;;;;;;11.38;7.70;;;;;;;;;;5090754;28;20048;-68
2022/03/09 11:32:14;;;;;;;13.40;7.10;;;;;;;;;;5090295;28;20040;-68
2022/03/09 11:34:41;;;;;;;10.35;7.53;;;;;;;;;;5091721;28;20381;-68
2022/03/09 11:37:10;;;;;;;15.65;8.20;;;;;;;;;;5091370;28;20086;-68
2022/03/09 11:39:38;;;;;;;11.63;8.13;;;;;;;;;;5091797;28;20044;-68
2022/03/09 11:42:22;;;;;;;15.10;8.60;;;;;;;;;;5091505;28;20417;-68
2022/03/09 11:44:49;;;;;;;10.63;7.35;;;;;;;;;;5091363;28;20048;-72
2022/03/09 11:47:15;;;;;;;10.15;7.40;;;;;;;;;;5090198;28;20538;-67
2022/03/09 11:49:41;;;;;;;12.52;7.82;;;;;;;;;;5091562;28;20073;-69
2022/03/09 11:52:16;;;;;;;17.92;8.20;;;;;;;;;;5090406;28;20113;-70
2022/03/09 11:54:47;;;;;;;13.93;7.85;;;;;;;;;;5090597;28;20048;-70
2022/03/09 11:57:14;;;;;;;13.63;8.43;;;;;;;;;;5094123;28;20043;-73
2022/03/09 12:00:00;;;;;;;11.50;7.72;;;;;;;;;;5092811;28;20089;-70
2022/03/09 12:03:05;;;;;;;10.95;7.53;;;;;;;;;;5093497;28;20513;-71
2022/03/09 12:05:31;;;;;;;12.15;8.38;;;;;;;;;;5073587;28;20601;-70
2022/03/09 12:07:58;;;;;;;13.75;7.90;;;;;;;;;;5073441;28;20036;-69
2022/03/09 12:10:44;;;;;;;13.57;7.88;;;;;;;;;;5090723;28;20048;-72
2022/03/09 12:13:16;;;;;;;13.85;8.55;;;;;;;;;;5091533;28;20092;-70
2022/03/09 12:16:01;;;;;;;11.35;7.60;;;;;;;;;;5092574;28;20048;-70
2022/03/09 12:18:46;;;;;;;13.50;8.20;;;;;;;;;;5091848;28;20051;-71
2022/03/09 12:21:14;;;;;;;10.88;8.07;;;;;;;;;;5090983;28;20097;-70
2022/03/09 12:23:58;;;;;;;11.25;7.57;;;;;;;;;;5090960;28;20093;-68
2022/03/09 12:26:39;;;;;;;13.82;8.07;;;;;;;;;;5092022;28;20101;-70
2022/03/09 12:29:20;;;;;;;17.98;9.32;;;;;;;;;;5091531;28;20028;-69
2022/03/09 12:31:47;;;;;;;11.85;8.63;;;;;;;;;;5092352;28;20589;-69
2022/03/09 12:34:39;;;;;;;11.82;8.13;;;;;;;;;;5081335;28;20039;-71
2022/03/09 12:37:06;;;;;;;;;;;;;;;;;;5050488;28;20119;-72
2022/03/09 12:39:32;;;;;;;10.85;8.07;;;;;;;;;;5074392;28;20008;-70
2022/03/09 12:42:00;;;;;;;11.88;7.90;;;;;;;;;;5083964;28;20665;-71
2022/03/09 12:44:28;;;;;;;12.43;7.53;;;;;;;;;;5093887;28;20036;-71
2022/03/09 12:46:54;;;;;;;16.83;7.75;;;;;;;;;;5094850;28;20490;-71
2022/03/09 12:49:21;;;;;;;13.77;8.30;;;;;;;;;;5094449;28;20498;-70
2022/03/09 12:51:57;;;;;;;12.70;8.00;;;;;;;;;;5094274;28;20039;-69
2022/03/09 12:54:29;;;;;;;15.40;8.38;;;;;;;;;;5083950;28;20043;-72
2022/03/09 12:56:55;;;;;;;10.88;7.97;;;;;;;;;;5074220;28;20067;-70
2022/03/09 12:59:21;;;;;;;10.25;7.07;;;;;;;;;;5091835;28;20048;-72
2022/03/09 13:01:55;;;;;;;11.38;8.07;;;;;;;;;;5095203;28;20055;-69
2022/03/09 13:04:25;;;;;;;11.60;8.20;;;;;;;;;;5094408;28;20076;-69
2022/03/09 13:06:51;;;;;;;11.82;7.97;;;;;;;;;;5093908;28;20054;-70
2022/03/09 13:09:24;;;;;;;11.88;8.52;;;;;;;;;;5094135;28;20040;-69
2022/03/09 13:11:50;;;;;;;9.68;7.40;;;;;;;;;;5094674;28;20040;-69
2022/03/09 13:14:18;;;;;;;11.68;7.60;;;;;;;;;;5093919;28;20845;-69
2022/03/09 13:16:44;;;;;;;11.85;8.52;;;;;;;;;;5092630;28;20044;-70
2022/03/09 13:19:11;;;;;;;11.20;7.90;;;;;;;;;;5093998;28;20096;-70
2022/03/09 13:21:38;;;;;;;12.50;7.85;;;;;;;;;;5091987;28;20112;-69
2022/03/09 13:24:05;;;;;;;10.13;7.65;;;;;;;;;;5089028;28;20161;-69
2022/03/09 13:26:39;;;;;;;11.02;7.82;;;;;;;;;;5081705;28;20040;-69
2022/03/09 13:29:14;;;;;;;13.90;8.60;;;;;;;;;;5085629;28;20059;-69
2022/03/09 13:31:44;;;;;;;11.50;8.27;;;;;;;;;;5074405;28;20056;-69
2022/03/09 13:34:39;;;;;;;12.45;8.38;;;;;;;;;;5086165;28;20040;-69
2022/03/09 13:37:06;;;;;;;11.65;8.25;;;;;;;;;;5090846;28;20044;-69
2022/03/09 13:39:42;;;;;;;11.65;8.52;;;;;;;;;;5074224;28;20047;-70
2022/03/09 13:42:20;;;;;;;9.30;7.88;;;;;;;;;;5090320;28;20052;-71
2022/03/09 13:45:00;;;;;;;11.88;8.27;;;;;;;;;;5089200;28;20044;-69
2022/03/09 13:47:26;;;;;;;11.52;8.27;;;;;;;;;;5089022;28;20495;-70
2022/03/09 13:49:52;;;;;;;11.00;8.40;;;;;;;;;;5089251;28;20043;-70
2022/03/09 13:52:28;;;;;;;10.88;8.25;;;;;;;;;;5090717;28;20422;-70
2022/03/09 13:54:57;;;;;;;10.98;8.07;;;;;;;;;;5086325;28;20086;-70
2022/03/09 13:57:31;;;;;;;12.45;9.00;;;;;;;;;;5064520;28;20048;-70
2022/03/09 13:59:57;;;;;;;11.40;8.68;;;;;;;;;;5077465;28;20394;-70
2022/03/09 14:02:24;;;;;;;12.85;8.30;;;;;;;;;;5086378;28;20063;-70
2022/03/09 14:04:50;;;;;;;10.15;8.15;;;;;;;;;;5089744;28;20048;-70
2022/03/09 14:07:17;;;;;;;10.65;8.30;;;;;;;;;;5074612;28;20085;-70
2022/03/09 14:10:03;;;;;;;11.65;8.48;;;;;;;;;;5092117;28;20136;-70
2022/03/09 14:12:29;;;;;;;11.15;8.27;;;;;;;;;;5082913;28;20837;-70
2022/03/09 14:14:55;;;;;;;11.52;8.13;;;;;;;;;;5078139;28;20058;-70
2022/03/09 14:17:22;;;;;;;13.45;9.40;;;;;;;;;;5080116;28;20040;-70
2022/03/09 14:19:48;;;;;;;11.40;8.65;;;;;;;;;;5089115;28;20040;-70
2022/03/09 14:22:14;;;;;;;10.77;8.30;;;;;;;;;;5088743;28;20532;-70
2022/03/09 14:24:40;;;;;;;10.57;8.15;;;;;;;;;;5092787;28;20032;-71
2022/03/09 14:27:06;;;;;;;11.18;8.45;;;;;;;;;;5092162;28;20043;-68
2022/03/09 14:29:32;;;;;;;12.02;9.05;;;;;;;;;;5091532;28;20048;-68
2022/03/09 14:31:58;;;;;;;10.85;8.45;;;;;;;;;;5091552;28;20036;-67
2022/03/09 14:34:25;;;;;;;11.38;8.63;;;;;;;;;;5079467;28;20052;-67
2022/03/09 14:36:51;;;;;;;11.18;8.45;;;;;;;;;;5074187;28;20048;-67
2022/03/09 14:39:18;;;;;;;12.43;9.18;;;;;;;;;;5079714;28;20063;-67